Douglas, WY

9:08 PM MST on December 25, 2014 (GMT -0700)
Converse County | Change Station
CLOSE
Current Station
Airport
Location: Douglas,
Elevation: 4928 ft
Nearby Weather Stations
Active Advisory: Winter Storm Warning

Elev 4928 ft 42.80 °N, 105.38 °W | Updated 15 minutes ago

Snow
Snow
18 °F
Feels Like 9 °F
N
7
Wind Variable Wind from NNW

Today
High -- | Low -- °F
--% Chance of Precip.
Yesterday
High -- | Low -- °F
Precip. -- in
7:31 AM 4:32 PM
Waxing Crescent, 22% visible
Pressure 30.04 in
Visibility 1.5 miles
Clouds Overcast 1600 ft
Windchill 9 °F
Dew Point 14 °F
Humidity 84%
Rainfall 0.01 in
Snow Depth Not available.
UV 0 out of 12
Pollen .10 out of 12
Air Quality Not available.
Flu Activity Not available.
METAR KDGW 260353Z AUTO 34006KT 1 1/2SM -SN BR OVC016 M08/M10 A2992 RMK AO2 SLP172 P0000 T10781100

More Conditions Fewer Conditions

Pressure 30.04 in
Visibility 1.5 miles
Clouds Overcast 1600 ft
Windchill 9 °F
Dew Point 14 °F
Humidity 84%
Rainfall 0.01 in
Snow Depth Not available.
UV 0 out of 12
Pollen .10 out of 12
Air Quality Not available.
Flu Activity Not available.
METAR KDGW 260353Z AUTO 34006KT 1 1/2SM -SN BR OVC016 M08/M10 A2992 RMK AO2 SLP172 P0000 T10781100

More Conditions Fewer Conditions

10-Day Weather Forecast

Almanac

Astronomy

Dec. 25, 2014 Rise Set
Actual Time
Civil Twilight
Nautical Twilight
Astronomical Twilight
Moon
Length of Visible Light
Length of Day
Tomorrow will be .
, % of the Moon is Illuminated

Today's Extremes

State Highs State Lows

Community

WunderPhotos

Upload Photos

1,780,534 photos uploaded!

WunderBlogs® & News

Nearby

Air Quality

  Air Quality AQ Index Pollutant
Not available.

Snow Depth

Station Depth Elevation

Earthquake Activity

City Distance Mag. Time & Date
Minimum magnitude displayed is 2.5.

Coastal Water Temperatures

Place Temperature

Nearby Weather Stations